sensor_id;sensor_type;location;lat;lon;timestamp;pressure;altitude;pressure_sealevel;temperature;humidity
12209;BME280;6167;43.080;25.634;2022-11-15T00:01:28;100489.22;;;8.90;100.00
12209;BME280;6167;43.080;25.634;2022-11-15T00:03:56;100470.25;;;8.73;100.00
12209;BME280;6167;43.080;25.634;2022-11-15T00:06:23;100464.34;;;8.64;100.00
12209;BME280;6167;43.080;25.634;2022-11-15T00:08:51;100482.22;;;8.88;100.00
12209;BME280;6167;43.080;25.634;2022-11-15T00:11:21;100477.38;;;9.07;100.00
12209;BME280;6167;43.080;25.634;2022-11-15T00:13:48;100474.50;;;8.80;100.00
12209;BME280;6167;43.080;25.634;2022-11-15T00:16:16;100465.31;;;8.59;100.00
12209;BME280;6167;43.080;25.634;2022-11-15T00:18:44;100468.53;;;8.72;100.00
12209;BME280;6167;43.080;25.634;2022-11-15T00:21:13;100478.41;;;9.00;100.00
12209;BME280;6167;43.080;25.634;2022-11-15T00:23:40;100470.19;;;8.76;100.00
12209;BME280;6167;43.080;25.634;2022-11-15T00:26:11;100474.88;;;8.64;100.00
12209;BME280;6167;43.080;25.634;2022-11-15T00:28:39;100465.25;;;8.63;100.00
12209;BME280;6167;43.080;25.634;2022-11-15T00:31:08;100460.44;;;8.80;100.00
12209;BME280;6167;43.080;25.634;2022-11-15T00:33:37;100460.63;;;8.72;100.00
12209;BME280;6167;43.080;25.634;2022-11-15T00:36:08;100468.69;;;8.66;100.00
12209;BME280;6167;43.080;25.634;2022-11-15T00:38:38;100441.59;;;8.58;100.00
12209;BME280;6167;43.080;25.634;2022-11-15T00:41:06;100461.38;;;8.77;100.00
12209;BME280;6167;43.080;25.634;2022-11-15T00:43:33;100442.94;;;8.76;100.00
12209;BME280;6167;43.080;25.634;2022-11-15T00:46:00;100457.16;;;8.70;100.00
12209;BME280;6167;43.080;25.634;2022-11-15T00:48:29;100458.22;;;8.61;100.00
12209;BME280;6167;43.080;25.634;2022-11-15T00:50:57;100443.31;;;8.60;100.00
12209;BME280;6167;43.080;25.634;2022-11-15T00:53:25;100453.13;;;8.92;100.00
12209;BME280;6167;43.080;25.634;2022-11-15T00:55:53;100454.38;;;8.76;100.00
12209;BME280;6167;43.080;25.634;2022-11-15T00:58:20;100435.47;;;8.57;100.00
12209;BME280;6167;43.080;25.634;2022-11-15T01:00:47;100454.72;;;8.61;100.00
12209;BME280;6167;43.080;25.634;2022-11-15T01:03:14;100448.00;;;8.85;100.00
12209;BME280;6167;43.080;25.634;2022-11-15T01:05:42;100446.22;;;8.87;100.00
12209;BME280;6167;43.080;25.634;2022-11-15T01:08:12;100451.78;;;8.73;100.00
12209;BME280;6167;43.080;25.634;2022-11-15T01:10:41;100409.41;;;8.45;100.00
12209;BME280;6167;43.080;25.634;2022-11-15T01:13:09;100438.47;;;8.79;100.00
12209;BME280;6167;43.080;25.634;2022-11-15T01:15:39;100434.13;;;8.77;100.00
12209;BME280;6167;43.080;25.634;2022-11-15T01:18:06;100432.69;;;8.64;100.00
12209;BME280;6167;43.080;25.634;2022-11-15T01:20:33;100438.13;;;8.56;100.00
12209;BME280;6167;43.080;25.634;2022-11-15T01:23:00;100429.06;;;8.69;100.00
12209;BME280;6167;43.080;25.634;2022-11-15T01:25:28;100412.16;;;8.76;100.00
12209;BME280;6167;43.080;25.634;2022-11-15T01:27:56;100424.66;;;8.70;100.00
12209;BME280;6167;43.080;25.634;2022-11-15T01:30:24;100434.41;;;8.66;100.00
12209;BME280;6167;43.080;25.634;2022-11-15T01:32:51;100435.97;;;8.73;100.00
12209;BME280;6167;43.080;25.634;2022-11-15T01:35:18;100418.25;;;8.80;100.00
12209;BME280;6167;43.080;25.634;2022-11-15T01:37:45;100430.34;;;8.88;100.00
12209;BME280;6167;43.080;25.634;2022-11-15T01:40:12;100430.66;;;8.75;100.00
12209;BME280;6167;43.080;25.634;2022-11-15T01:42:39;100432.75;;;8.60;100.00
12209;BME280;6167;43.080;25.634;2022-11-15T01:45:13;100435.84;;;8.79;100.00
12209;BME280;6167;43.080;25.634;2022-11-15T01:47:45;100427.72;;;8.88;100.00
12209;BME280;6167;43.080;25.634;2022-11-15T01:50:19;100433.25;;;8.76;100.00
12209;BME280;6167;43.080;25.634;2022-11-15T01:52:46;100414.25;;;8.64;100.00
12209;BME280;6167;43.080;25.634;2022-11-15T01:55:16;100429.00;;;8.72;100.00
12209;BME280;6167;43.080;25.634;2022-11-15T01:57:47;100430.19;;;8.94;100.00
12209;BME280;6167;43.080;25.634;2022-11-15T02:00:18;100426.19;;;8.78;100.00
12209;BME280;6167;43.080;25.634;2022-11-15T02:02:45;100426.38;;;8.71;100.00
12209;BME280;6167;43.080;25.634;2022-11-15T02:05:12;100429.09;;;8.68;100.00
12209;BME280;6167;43.080;25.634;2022-11-15T02:07:39;100420.63;;;8.90;100.00
12209;BME280;6167;43.080;25.634;2022-11-15T02:10:09;100421.63;;;8.85;100.00
12209;BME280;6167;43.080;25.634;2022-11-15T02:12:37;100428.13;;;8.72;100.00
12209;BME280;6167;43.080;25.634;2022-11-15T02:15:06;100424.00;;;8.60;100.00
12209;BME280;6167;43.080;25.634;2022-11-15T02:17:49;100425.19;;;8.84;100.00
12209;BME280;6167;43.080;25.634;2022-11-15T02:20:42;100419.31;;;8.73;100.00
12209;BME280;6167;43.080;25.634;2022-11-15T02:23:36;100415.28;;;8.56;100.00
12209;BME280;6167;43.080;25.634;2022-11-15T02:26:30;100401.09;;;8.62;100.00
12209;BME280;6167;43.080;25.634;2022-11-15T02:29:05;100411.00;;;8.89;100.00
12209;BME280;6167;43.080;25.634;2022-11-15T02:31:43;100403.63;;;8.67;100.00
12209;BME280;6167;43.080;25.634;2022-11-15T02:34:18;100401.22;;;8.56;100.00
12209;BME280;6167;43.080;25.634;2022-11-15T02:36:56;100408.09;;;8.63;100.00
12209;BME280;6167;43.080;25.634;2022-11-15T02:39:31;100399.69;;;8.84;100.00
12209;BME280;6167;43.080;25.634;2022-11-15T02:42:03;100405.44;;;8.65;100.00
12209;BME280;6167;43.080;25.634;2022-11-15T02:44:55;100391.03;;;8.42;100.00
12209;BME280;6167;43.080;25.634;2022-11-15T02:47:24;100396.78;;;8.58;100.00
12209;BME280;6167;43.080;25.634;2022-11-15T02:49:58;100396.13;;;8.85;100.00
12209;BME280;6167;43.080;25.634;2022-11-15T02:52:25;100389.50;;;8.69;100.00
12209;BME280;6167;43.080;25.634;2022-11-15T02:54:53;100382.94;;;8.50;100.00
12209;BME280;6167;43.080;25.634;2022-11-15T02:57:31;100394.09;;;8.61;100.00
12209;BME280;6167;43.080;25.634;2022-11-15T03:00:05;100386.38;;;8.89;100.00
12209;BME280;6167;43.080;25.634;2022-11-15T03:05:41;100392.63;;;8.49;100.00
12209;BME280;6167;43.080;25.634;2022-11-15T03:08:15;100390.34;;;8.71;100.00
12209;BME280;6167;43.080;25.634;2022-11-15T03:10:51;100382.25;;;8.77;100.00
12209;BME280;6167;43.080;25.634;2022-11-15T03:13:27;100388.81;;;8.61;100.00
12209;BME280;6167;43.080;25.634;2022-11-15T03:16:01;100385.44;;;8.54;100.00
12209;BME280;6167;43.080;25.634;2022-11-15T03:18:33;100382.44;;;8.71;100.00
12209;BME280;6167;43.080;25.634;2022-11-15T03:21:06;100375.41;;;8.72;100.00
12209;BME280;6167;43.080;25.634;2022-11-15T03:23:36;100381.03;;;8.55;100.00
12209;BME280;6167;43.080;25.634;2022-11-15T03:26:06;100380.41;;;8.45;100.00
12209;BME280;6167;43.080;25.634;2022-11-15T03:28:36;100385.09;;;8.70;100.00
12209;BME280;6167;43.080;25.634;2022-11-15T03:31:05;100374.34;;;8.77;100.00
12209;BME280;6167;43.080;25.634;2022-11-15T03:33:55;100366.00;;;8.60;100.00
12209;BME280;6167;43.080;25.634;2022-11-15T03:36:25;100376.69;;;8.54;100.00
12209;BME280;6167;43.080;25.634;2022-11-15T03:38:54;100377.16;;;8.71;100.00
12209;BME280;6167;43.080;25.634;2022-11-15T03:41:27;100372.59;;;8.78;100.00
12209;BME280;6167;43.080;25.634;2022-11-15T03:43:59;100362.41;;;8.63;100.00
12209;BME280;6167;43.080;25.634;2022-11-15T03:46:33;100367.88;;;8.55;100.00
12209;BME280;6167;43.080;25.634;2022-11-15T03:49:09;100365.97;;;8.61;100.00
12209;BME280;6167;43.080;25.634;2022-11-15T03:51:38;100364.53;;;8.84;100.00
12209;BME280;6167;43.080;25.634;2022-11-15T03:54:06;100372.75;;;8.72;100.00
12209;BME280;6167;43.080;25.634;2022-11-15T03:56:33;100361.59;;;8.60;100.00
12209;BME280;6167;43.080;25.634;2022-11-15T03:59:00;100361.75;;;8.53;100.00
12209;BME280;6167;43.080;25.634;2022-11-15T04:01:27;100356.78;;;8.76;100.00
12209;BME280;6167;43.080;25.634;2022-11-15T04:03:54;100355.91;;;8.77;100.00
12209;BME280;6167;43.080;25.634;2022-11-15T04:06:22;100352.81;;;8.60;100.00
12209;BME280;6167;43.080;25.634;2022-11-15T04:08:49;100352.28;;;8.46;100.00
12209;BME280;6167;43.080;25.634;2022-11-15T04:11:16;100353.56;;;8.65;100.00
12209;BME280;6167;43.080;25.634;2022-11-15T04:13:43;100348.03;;;8.76;100.00
12209;BME280;6167;43.080;25.634;2022-11-15T04:16:10;100349.16;;;8.66;100.00
12209;BME280;6167;43.080;25.634;2022-11-15T04:18:37;100345.88;;;8.56;100.00
12209;BME280;6167;43.080;25.634;2022-11-15T04:21:04;100344.88;;;8.61;100.00
12209;BME280;6167;43.080;25.634;2022-11-15T04:23:50;100333.97;;;8.75;100.00
12209;BME280;6167;43.080;25.634;2022-11-15T04:26:34;100322.38;;;8.48;100.00
12209;BME280;6167;43.080;25.634;2022-11-15T04:29:01;100347.69;;;8.54;100.00
12209;BME280;6167;43.080;25.634;2022-11-15T04:31:45;100345.09;;;8.52;100.00
12209;BME280;6167;43.080;25.634;2022-11-15T04:34:13;100354.06;;;8.81;100.00
12209;BME280;6167;43.080;25.634;2022-11-15T04:36:40;100339.94;;;8.83;100.00
12209;BME280;6167;43.080;25.634;2022-11-15T04:39:25;100338.53;;;8.70;100.00
12209;BME280;6167;43.080;25.634;2022-11-15T04:41:52;100346.38;;;8.72;100.00
12209;BME280;6167;43.080;25.634;2022-11-15T04:44:19;100342.13;;;8.66;100.00
12209;BME280;6167;43.080;25.634;2022-11-15T04:46:46;100337.78;;;8.64;100.00
12209;BME280;6167;43.080;25.634;2022-11-15T04:49:13;100330.19;;;8.51;100.00
12209;BME280;6167;43.080;25.634;2022-11-15T04:51:40;100329.41;;;8.48;100.00
12209;BME280;6167;43.080;25.634;2022-11-15T04:54:07;100338.28;;;8.44;100.00
12209;BME280;6167;43.080;25.634;2022-11-15T04:56:35;100325.91;;;8.47;100.00
12209;BME280;6167;43.080;25.634;2022-11-15T04:59:02;100316.50;;;8.73;100.00
12209;BME280;6167;43.080;25.634;2022-11-15T05:01:29;100323.41;;;8.75;100.00
12209;BME280;6167;43.080;25.634;2022-11-15T05:03:56;100315.13;;;8.56;100.00
12209;BME280;6167;43.080;25.634;2022-11-15T05:06:40;100328.22;;;8.59;100.00
12209;BME280;6167;43.080;25.634;2022-11-15T05:09:07;100327.75;;;8.78;100.00
12209;BME280;6167;43.080;25.634;2022-11-15T05:11:36;100333.28;;;8.69;100.00
12209;BME280;6167;43.080;25.634;2022-11-15T05:14:02;100328.25;;;8.58;100.00
12209;BME280;6167;43.080;25.634;2022-11-15T05:16:29;100339.47;;;8.68;100.00
12209;BME280;6167;43.080;25.634;2022-11-15T05:18:56;100330.88;;;8.93;100.00
12209;BME280;6167;43.080;25.634;2022-11-15T05:21:23;100328.28;;;8.92;100.00
12209;BME280;6167;43.080;25.634;2022-11-15T05:23:50;100331.53;;;8.68;100.00
12209;BME280;6167;43.080;25.634;2022-11-15T05:26:18;100329.06;;;8.61;100.00
12209;BME280;6167;43.080;25.634;2022-11-15T05:28:52;100330.72;;;8.66;100.00
12209;BME280;6167;43.080;25.634;2022-11-15T05:31:19;100330.13;;;8.88;100.00
12209;BME280;6167;43.080;25.634;2022-11-15T05:33:46;100323.69;;;8.66;100.00
12209;BME280;6167;43.080;25.634;2022-11-15T05:36:17;100339.66;;;8.58;100.00
12209;BME280;6167;43.080;25.634;2022-11-15T05:38:46;100338.84;;;8.56;100.00
12209;BME280;6167;43.080;25.634;2022-11-15T05:41:14;100336.13;;;8.59;100.00
12209;BME280;6167;43.080;25.634;2022-11-15T05:43:42;100333.91;;;8.78;100.00
12209;BME280;6167;43.080;25.634;2022-11-15T05:46:13;100341.00;;;8.75;100.00
12209;BME280;6167;43.080;25.634;2022-11-15T05:48:42;100343.81;;;8.69;100.00
12209;BME280;6167;43.080;25.634;2022-11-15T05:51:11;100343.22;;;8.57;100.00
12209;BME280;6167;43.080;25.634;2022-11-15T05:53:39;100342.06;;;8.69;100.00
12209;BME280;6167;43.080;25.634;2022-11-15T05:56:06;100327.50;;;8.88;100.00
12209;BME280;6167;43.080;25.634;2022-11-15T05:58:36;100328.59;;;8.80;100.00
12209;BME280;6167;43.080;25.634;2022-11-15T06:01:03;100336.94;;;8.63;100.00
12209;BME280;6167;43.080;25.634;2022-11-15T06:03:32;100339.09;;;8.81;100.00
12209;BME280;6167;43.080;25.634;2022-11-15T06:05:59;100315.31;;;8.83;100.00
12209;BME280;6167;43.080;25.634;2022-11-15T06:08:26;100342.19;;;8.97;100.00
12209;BME280;6167;43.080;25.634;2022-11-15T06:10:53;100340.44;;;8.98;100.00
12209;BME280;6167;43.080;25.634;2022-11-15T06:13:20;100338.81;;;8.93;100.00
12209;BME280;6167;43.080;25.634;2022-11-15T06:15:47;100339.44;;;9.02;100.00
12209;BME280;6167;43.080;25.634;2022-11-15T06:18:14;100339.00;;;9.18;100.00
12209;BME280;6167;43.080;25.634;2022-11-15T06:20:42;100347.97;;;9.13;100.00
12209;BME280;6167;43.080;25.634;2022-11-15T06:23:09;100332.09;;;9.14;100.00
12209;BME280;6167;43.080;25.634;2022-11-15T06:25:36;100342.69;;;9.44;100.00
12209;BME280;6167;43.080;25.634;2022-11-15T06:28:03;100340.38;;;9.33;100.00
12209;BME280;6167;43.080;25.634;2022-11-15T06:30:30;100338.16;;;9.49;100.00
12209;BME280;6167;43.080;25.634;2022-11-15T06:33:03;100326.41;;;9.59;100.00
12209;BME280;6167;43.080;25.634;2022-11-15T06:35:33;100333.88;;;9.76;100.00
12209;BME280;6167;43.080;25.634;2022-11-15T06:38:04;100332.94;;;9.77;100.00
12209;BME280;6167;43.080;25.634;2022-11-15T06:40:33;100335.06;;;9.64;100.00
12209;BME280;6167;43.080;25.634;2022-11-15T06:43:01;100325.81;;;9.79;100.00
12209;BME280;6167;43.080;25.634;2022-11-15T06:45:28;100323.59;;;9.65;100.00
12209;BME280;6167;43.080;25.634;2022-11-15T06:47:55;100329.38;;;9.78;100.00
12209;BME280;6167;43.080;25.634;2022-11-15T06:50:22;100336.03;;;9.91;100.00
12209;BME280;6167;43.080;25.634;2022-11-15T06:52:49;100327.25;;;9.90;100.00
12209;BME280;6167;43.080;25.634;2022-11-15T06:55:18;100311.56;;;9.84;100.00
12209;BME280;6167;43.080;25.634;2022-11-15T06:57:49;100323.34;;;10.02;100.00
12209;BME280;6167;43.080;25.634;2022-11-15T07:00:19;100299.84;;;9.94;100.00
12209;BME280;6167;43.080;25.634;2022-11-15T07:02:46;100325.72;;;10.11;100.00
12209;BME280;6167;43.080;25.634;2022-11-15T07:05:14;100319.41;;;10.17;100.00
12209;BME280;6167;43.080;25.634;2022-11-15T07:07:42;100314.69;;;10.26;100.00
12209;BME280;6167;43.080;25.634;2022-11-15T07:10:09;100311.78;;;10.36;100.00
12209;BME280;6167;43.080;25.634;2022-11-15T07:12:37;100303.81;;;10.37;100.00
12209;BME280;6167;43.080;25.634;2022-11-15T07:15:06;100318.28;;;9.96;100.00
12209;BME280;6167;43.080;25.634;2022-11-15T07:17:33;100297.31;;;9.90;100.00
12209;BME280;6167;43.080;25.634;2022-11-15T07:19:59;100316.94;;;10.11;100.00
12209;BME280;6167;43.080;25.634;2022-11-15T07:22:26;100316.38;;;10.29;100.00
12209;BME280;6167;43.080;25.634;2022-11-15T07:24:53;100312.09;;;10.25;100.00
12209;BME280;6167;43.080;25.634;2022-11-15T07:27:20;100314.69;;;10.26;100.00
12209;BME280;6167;43.080;25.634;2022-11-15T07:29:49;100310.50;;;10.19;100.00
12209;BME280;6167;43.080;25.634;2022-11-15T07:32:15;100311.75;;;10.08;100.00
12209;BME280;6167;43.080;25.634;2022-11-15T07:34:42;100310.66;;;10.15;100.00
12209;BME280;6167;43.080;25.634;2022-11-15T07:37:11;100306.38;;;10.11;100.00
12209;BME280;6167;43.080;25.634;2022-11-15T07:39:38;100308.72;;;10.20;100.00
12209;BME280;6167;43.080;25.634;2022-11-15T07:42:05;100309.56;;;10.22;100.00
12209;BME280;6167;43.080;25.634;2022-11-15T07:44:51;100312.88;;;10.28;100.00
12209;BME280;6167;43.080;25.634;2022-11-15T07:47:18;100311.25;;;10.24;100.00
12209;BME280;6167;43.080;25.634;2022-11-15T07:49:45;100309.91;;;10.10;100.00
12209;BME280;6167;43.080;25.634;2022-11-15T07:52:12;100304.66;;;9.80;100.00
12209;BME280;6167;43.080;25.634;2022-11-15T07:54:39;100314.34;;;9.80;100.00
12209;BME280;6167;43.080;25.634;2022-11-15T07:57:06;100321.38;;;9.51;100.00
12209;BME280;6167;43.080;25.634;2022-11-15T07:59:34;100310.28;;;9.70;100.00
12209;BME280;6167;43.080;25.634;2022-11-15T08:02:03;100314.25;;;10.66;100.00
12209;BME280;6167;43.080;25.634;2022-11-15T08:04:30;100324.13;;;11.38;100.00
12209;BME280;6167;43.080;25.634;2022-11-15T08:06:58;100318.16;;;11.56;100.00
12209;BME280;6167;43.080;25.634;2022-11-15T08:09:25;100306.22;;;11.44;100.00
12209;BME280;6167;43.080;25.634;2022-11-15T08:11:52;100296.09;;;11.32;100.00
12209;BME280;6167;43.080;25.634;2022-11-15T08:14:20;100293.59;;;11.27;100.00
12209;BME280;6167;43.080;25.634;2022-11-15T08:16:47;100283.13;;;11.24;100.00
12209;BME280;6167;43.080;25.634;2022-11-15T08:19:16;100284.88;;;11.00;100.00
12209;BME280;6167;43.080;25.634;2022-11-15T08:21:43;100284.03;;;11.00;100.00
12209;BME280;6167;43.080;25.634;2022-11-15T08:24:10;100283.31;;;10.95;100.00
12209;BME280;6167;43.080;25.634;2022-11-15T08:26:37;100274.25;;;10.77;100.00
12209;BME280;6167;43.080;25.634;2022-11-15T08:29:05;100260.41;;;10.69;100.00
12209;BME280;6167;43.080;25.634;2022-11-15T08:31:32;100280.31;;;11.04;100.00
12209;BME280;6167;43.080;25.634;2022-11-15T08:34:00;100288.59;;;11.20;100.00
12209;BME280;6167;43.080;25.634;2022-11-15T08:36:29;100279.56;;;11.25;100.00
12209;BME280;6167;43.080;25.634;2022-11-15T08:38:56;100275.47;;;11.17;100.00
12209;BME280;6167;43.080;25.634;2022-11-15T08:41:26;100266.97;;;11.32;100.00
12209;BME280;6167;43.080;25.634;2022-11-15T08:43:54;100257.88;;;11.16;100.00
12209;BME280;6167;43.080;25.634;2022-11-15T08:46:22;100259.84;;;11.34;100.00
12209;BME280;6167;43.080;25.634;2022-11-15T08:48:48;100251.19;;;11.29;100.00
12209;BME280;6167;43.080;25.634;2022-11-15T08:51:17;100248.41;;;11.09;100.00
12209;BME280;6167;43.080;25.634;2022-11-15T08:53:46;100243.56;;;11.21;100.00
12209;BME280;6167;43.080;25.634;2022-11-15T08:56:14;100233.09;;;11.42;100.00
12209;BME280;6167;43.080;25.634;2022-11-15T08:58:41;100235.72;;;11.42;100.00
12209;BME280;6167;43.080;25.634;2022-11-15T09:01:15;100223.19;;;11.68;100.00
12209;BME280;6167;43.080;25.634;2022-11-15T09:03:43;100228.50;;;11.68;100.00
12209;BME280;6167;43.080;25.634;2022-11-15T09:06:10;100216.53;;;11.82;100.00
12209;BME280;6167;43.080;25.634;2022-11-15T09:08:37;100221.25;;;11.27;100.00
12209;BME280;6167;43.080;25.634;2022-11-15T09:11:07;100215.94;;;11.03;100.00
12209;BME280;6167;43.080;25.634;2022-11-15T09:13:35;100210.28;;;11.14;100.00
12209;BME280;6167;43.080;25.634;2022-11-15T09:16:04;100211.53;;;11.27;100.00
12209;BME280;6167;43.080;25.634;2022-11-15T09:18:31;100202.78;;;11.25;100.00
12209;BME280;6167;43.080;25.634;2022-11-15T09:20:59;100194.63;;;11.08;100.00
12209;BME280;6167;43.080;25.634;2022-11-15T09:23:27;100199.22;;;11.03;100.00
12209;BME280;6167;43.080;25.634;2022-11-15T09:25:59;100198.56;;;10.73;100.00
12209;BME280;6167;43.080;25.634;2022-11-15T09:28:29;100195.53;;;10.59;100.00
12209;BME280;6167;43.080;25.634;2022-11-15T09:30:57;100195.25;;;10.91;100.00
12209;BME280;6167;43.080;25.634;2022-11-15T09:33:25;100184.00;;;10.60;100.00
12209;BME280;6167;43.080;25.634;2022-11-15T09:35:52;100163.16;;;10.77;100.00
12209;BME280;6167;43.080;25.634;2022-11-15T09:38:19;100177.47;;;10.95;100.00
12209;BME280;6167;43.080;25.634;2022-11-15T09:40:49;100171.72;;;11.07;100.00
12209;BME280;6167;43.080;25.634;2022-11-15T09:43:32;100169.66;;;11.15;100.00
12209;BME280;6167;43.080;25.634;2022-11-15T09:46:10;100155.88;;;11.29;100.00
12209;BME280;6167;43.080;25.634;2022-11-15T09:48:52;100163.44;;;11.40;100.00
12209;BME280;6167;43.080;25.634;2022-11-15T09:51:30;100146.22;;;11.28;100.00
12209;BME280;6167;43.080;25.634;2022-11-15T09:54:05;100151.53;;;11.05;100.00
12209;BME280;6167;43.080;25.634;2022-11-15T09:56:40;100151.94;;;11.17;100.00
12209;BME280;6167;43.080;25.634;2022-11-15T09:59:21;100134.63;;;11.09;100.00
12209;BME280;6167;43.080;25.634;2022-11-15T10:01:55;100149.81;;;10.80;100.00
12209;BME280;6167;43.080;25.634;2022-11-15T10:04:25;100137.50;;;10.79;100.00
12209;BME280;6167;43.080;25.634;2022-11-15T10:07:00;100142.16;;;11.19;100.00
12209;BME280;6167;43.080;25.634;2022-11-15T10:09:32;100140.53;;;11.39;100.00
12209;BME280;6167;43.080;25.634;2022-11-15T10:12:00;100128.75;;;11.67;100.00
12209;BME280;6167;43.080;25.634;2022-11-15T10:14:31;100120.94;;;11.64;100.00
12209;BME280;6167;43.080;25.634;2022-11-15T10:17:20;100124.88;;;11.54;100.00
12209;BME280;6167;43.080;25.634;2022-11-15T10:19:58;100074.28;;;11.40;100.00
12209;BME280;6167;43.080;25.634;2022-11-15T10:22:38;100119.63;;;11.31;100.00
12209;BME280;6167;43.080;25.634;2022-11-15T10:25:21;100123.81;;;10.91;100.00
12209;BME280;6167;43.080;25.634;2022-11-15T10:27:56;100126.63;;;10.87;100.00
12209;BME280;6167;43.080;25.634;2022-11-15T10:30:31;100119.81;;;10.56;100.00
12209;BME280;6167;43.080;25.634;2022-11-15T10:33:10;100116.22;;;10.34;100.00
12209;BME280;6167;43.080;25.634;2022-11-15T10:35:38;100123.59;;;10.24;100.00
12209;BME280;6167;43.080;25.634;2022-11-15T10:38:06;100120.34;;;10.41;100.00
12209;BME280;6167;43.080;25.634;2022-11-15T10:40:34;100120.41;;;10.40;100.00
12209;BME280;6167;43.080;25.634;2022-11-15T10:43:10;100122.38;;;10.35;100.00
12209;BME280;6167;43.080;25.634;2022-11-15T10:45:40;100110.16;;;10.04;100.00
12209;BME280;6167;43.080;25.634;2022-11-15T10:48:22;100107.09;;;9.65;100.00
12209;BME280;6167;43.080;25.634;2022-11-15T10:50:50;100115.25;;;9.84;100.00
12209;BME280;6167;43.080;25.634;2022-11-15T10:53:23;100113.16;;;9.95;100.00
12209;BME280;6167;43.080;25.634;2022-11-15T10:55:53;100112.41;;;10.16;100.00
12209;BME280;6167;43.080;25.634;2022-11-15T10:58:31;100107.34;;;10.10;100.00
12209;BME280;6167;43.080;25.634;2022-11-15T11:01:10;100098.78;;;10.02;100.00
12209;BME280;6167;43.080;25.634;2022-11-15T11:03:39;100088.03;;;10.08;100.00
12209;BME280;6167;43.080;25.634;2022-11-15T11:06:10;100091.53;;;10.09;100.00
12209;BME280;6167;43.080;25.634;2022-11-15T11:08:37;100087.88;;;10.13;100.00
12209;BME280;6167;43.080;25.634;2022-11-15T11:11:05;100081.94;;;10.06;100.00
12209;BME280;6167;43.080;25.634;2022-11-15T11:13:33;100089.31;;;9.96;100.00
12209;BME280;6167;43.080;25.634;2022-11-15T11:16:19;100083.69;;;10.06;100.00
12209;BME280;6167;43.080;25.634;2022-11-15T11:18:54;100085.88;;;10.19;100.00
12209;BME280;6167;43.080;25.634;2022-11-15T11:21:29;100077.66;;;10.02;100.00
12209;BME280;6167;43.080;25.634;2022-11-15T11:24:04;100077.75;;;9.99;100.00
12209;BME280;6167;43.080;25.634;2022-11-15T11:26:42;100087.53;;;9.97;100.00
12209;BME280;6167;43.080;25.634;2022-11-15T11:29:33;100076.63;;;10.06;100.00
12209;BME280;6167;43.080;25.634;2022-11-15T11:32:21;100067.53;;;10.15;100.00
12209;BME280;6167;43.080;25.634;2022-11-15T11:34:58;100057.22;;;10.33;100.00
12209;BME280;6167;43.080;25.634;2022-11-15T11:37:32;100061.56;;;10.59;100.00
12209;BME280;6167;43.080;25.634;2022-11-15T11:40:12;100056.75;;;10.69;100.00
12209;BME280;6167;43.080;25.634;2022-11-15T11:42:50;100052.28;;;10.48;100.00
12209;BME280;6167;43.080;25.634;2022-11-15T11:45:35;100051.53;;;10.67;100.00
12209;BME280;6167;43.080;25.634;2022-11-15T11:48:12;100047.09;;;10.45;100.00
12209;BME280;6167;43.080;25.634;2022-11-15T11:50:41;100030.25;;;10.47;100.00
12209;BME280;6167;43.080;25.634;2022-11-15T11:53:12;100040.03;;;10.68;100.00
12209;BME280;6167;43.080;25.634;2022-11-15T11:55:44;100041.97;;;10.63;100.00
12209;BME280;6167;43.080;25.634;2022-11-15T11:58:16;100031.81;;;10.53;100.00
12209;BME280;6167;43.080;25.634;2022-11-15T12:00:50;100029.50;;;10.67;100.00
12209;BME280;6167;43.080;25.634;2022-11-15T12:03:26;100025.28;;;10.85;100.00
12209;BME280;6167;43.080;25.634;2022-11-15T12:05:58;100013.03;;;10.82;100.00
12209;BME280;6167;43.080;25.634;2022-11-15T12:08:32;100023.25;;;10.70;100.00
12209;BME280;6167;43.080;25.634;2022-11-15T12:11:08;100012.44;;;10.52;100.00
12209;BME280;6167;43.080;25.634;2022-11-15T12:13:38;100016.19;;;10.47;100.00
12209;BME280;6167;43.080;25.634;2022-11-15T12:16:11;100018.75;;;10.25;100.00
12209;BME280;6167;43.080;25.634;2022-11-15T12:18:46;100010.47;;;10.09;100.00
12209;BME280;6167;43.080;25.634;2022-11-15T12:21:19;100018.31;;;9.87;100.00
12209;BME280;6167;43.080;25.634;2022-11-15T12:23:53;100005.03;;;9.64;100.00
12209;BME280;6167;43.080;25.634;2022-11-15T12:26:25;99999.91;;;9.59;100.00
12209;BME280;6167;43.080;25.634;2022-11-15T12:28:55;100004.16;;;9.63;100.00
12209;BME280;6167;43.080;25.634;2022-11-15T12:31:30;99990.66;;;9.73;100.00
12209;BME280;6167;43.080;25.634;2022-11-15T12:34:04;99997.63;;;9.75;100.00
12209;BME280;6167;43.080;25.634;2022-11-15T12:36:42;100006.63;;;9.94;100.00
12209;BME280;6167;43.080;25.634;2022-11-15T12:39:10;99997.72;;;9.72;100.00
12209;BME280;6167;43.080;25.634;2022-11-15T12:41:38;99999.88;;;10.11;100.00
12209;BME280;6167;43.080;25.634;2022-11-15T12:44:10;99998.72;;;10.18;100.00
12209;BME280;6167;43.080;25.634;2022-11-15T12:47:01;99997.38;;;10.31;100.00
12209;BME280;6167;43.080;25.634;2022-11-15T12:49:46;99995.13;;;9.95;100.00
12209;BME280;6167;43.080;25.634;2022-11-15T12:52:14;99982.78;;;9.71;100.00
12209;BME280;6167;43.080;25.634;2022-11-15T12:55:00;99986.53;;;9.64;100.00
12209;BME280;6167;43.080;25.634;2022-11-15T12:57:42;99978.03;;;9.56;100.00
12209;BME280;6167;43.080;25.634;2022-11-15T13:03:25;99976.13;;;9.59;100.00
12209;BME280;6167;43.080;25.634;2022-11-15T13:06:07;99976.41;;;9.52;100.00
12209;BME280;6167;43.080;25.634;2022-11-15T13:08:44;99977.81;;;9.62;100.00
12209;BME280;6167;43.080;25.634;2022-11-15T13:11:45;99972.94;;;9.76;100.00
12209;BME280;6167;43.080;25.634;2022-11-15T13:17:27;99968.28;;;9.83;100.00